AAL2878 KDFW-KSAN
Flight info
| Callsign | AAL2878 |
|---|---|
| Flight time | 2h 53m |
| Altitude | 28000 |
| Route | WSTEX2 CIKAN EWM J4 SSO GBN J2 HOGGZ LUCKI1 |
| Aircraft | A321/M-SDE3FGHIRWY/LB1 |
Departure
| Time | 2026-05-05 00:59 |
|---|---|
| Airport | Dallas Fort Worth International Airport (KDFW) |
Arrival
| Time | 2026-05-05 03:53 |
|---|---|
| Airport | San Diego International Airport (KSAN) |
| Time | Latitude | Longitude | Altitude | Speed | Heading |
|---|---|---|---|---|---|
| 2026-05-04 23:57 | 32.89463 | -97.03745 | 598 ft | 0 kts | 357° |
| 2026-05-05 00:41 | 32.89462 | -97.03745 | 598 ft | 1 kts | 357° |
| 2026-05-05 00:42 | 32.89446 | -97.03744 | 598 ft | 3 kts | 12° |
| 2026-05-05 00:42 | 32.89429 | -97.03752 | 598 ft | 3 kts | 49° |
| 2026-05-05 00:42 | 32.89421 | -97.03770 | 598 ft | 2 kts | 88° |
| 2026-05-05 00:42 | 32.89421 | -97.03780 | 598 ft | 1 kts | 90° |
| 2026-05-05 00:46 | 32.89421 | -97.03779 | 598 ft | 1 kts | 90° |
| 2026-05-05 00:46 | 32.89421 | -97.03771 | 598 ft | 1 kts | 90° |
| 2026-05-05 00:47 | 32.89421 | -97.03758 | 598 ft | 2 kts | 90° |
| 2026-05-05 00:47 | 32.89421 | -97.03739 | 598 ft | 3 kts | 90° |
| 2026-05-05 00:47 | 32.89420 | -97.03714 | 598 ft | 3 kts | 91° |
| 2026-05-05 00:47 | 32.89420 | -97.03684 | 598 ft | 4 kts | 91° |
| 2026-05-05 00:48 | 32.89419 | -97.03648 | 598 ft | 5 kts | 91° |
| 2026-05-05 00:48 | 32.89411 | -97.03609 | 598 ft | 6 kts | 112° |
| 2026-05-05 00:48 | 32.89398 | -97.03558 | 598 ft | 7 kts | 98° |
| 2026-05-05 00:48 | 32.89397 | -97.03488 | 598 ft | 10 kts | 90° |
| 2026-05-05 00:49 | 32.89397 | -97.03401 | 598 ft | 11 kts | 90° |
| 2026-05-05 00:49 | 32.89398 | -97.03336 | 598 ft | 5 kts | 72° |
| 2026-05-05 00:49 | 32.89423 | -97.03321 | 598 ft | 4 kts | 6° |
| 2026-05-05 00:49 | 32.89463 | -97.03318 | 598 ft | 7 kts | 359° |
| 2026-05-05 00:50 | 32.89521 | -97.03318 | 598 ft | 10 kts | 360° |
| 2026-05-05 00:50 | 32.89590 | -97.03312 | 598 ft | 10 kts | 23° |
| 2026-05-05 00:50 | 32.89616 | -97.03244 | 598 ft | 9 kts | 82° |
| 2026-05-05 00:50 | 32.89659 | -97.03196 | 598 ft | 9 kts | 14° |
| 2026-05-05 00:51 | 32.89724 | -97.03195 | 598 ft | 10 kts | 360° |
| 2026-05-05 00:51 | 32.89794 | -97.03195 | 598 ft | 11 kts | 0° |
| 2026-05-05 00:51 | 32.89871 | -97.03194 | 598 ft | 12 kts | 0° |
| 2026-05-05 00:51 | 32.89966 | -97.03193 | 598 ft | 15 kts | 0° |
| 2026-05-05 00:52 | 32.90080 | -97.03193 | 598 ft | 17 kts | 0° |
| 2026-05-05 00:52 | 32.90199 | -97.03192 | 598 ft | 17 kts | 0° |
| 2026-05-05 00:52 | 32.90318 | -97.03191 | 598 ft | 17 kts | 0° |
| 2026-05-05 00:52 | 32.90438 | -97.03190 | 598 ft | 17 kts | 0° |
| 2026-05-05 00:53 | 32.90559 | -97.03190 | 598 ft | 17 kts | 360° |
| 2026-05-05 00:53 | 32.90681 | -97.03190 | 598 ft | 18 kts | 360° |
| 2026-05-05 00:53 | 32.90804 | -97.03189 | 598 ft | 18 kts | 1° |
| 2026-05-05 00:53 | 32.90928 | -97.03189 | 598 ft | 18 kts | 360° |
| 2026-05-05 00:54 | 32.91052 | -97.03187 | 598 ft | 18 kts | 0° |
| 2026-05-05 00:54 | 32.91178 | -97.03187 | 598 ft | 18 kts | 0° |
| 2026-05-05 00:54 | 32.91304 | -97.03186 | 598 ft | 18 kts | 0° |
| 2026-05-05 00:54 | 32.91424 | -97.03186 | 598 ft | 15 kts | 360° |
| 2026-05-05 00:55 | 32.91504 | -97.03186 | 598 ft | 10 kts | 360° |
| 2026-05-05 00:55 | 32.91556 | -97.03145 | 598 ft | 8 kts | 65° |
| 2026-05-05 00:55 | 32.91558 | -97.03118 | 598 ft | 0 kts | 86° |
| 2026-05-05 00:57 | 32.91558 | -97.03116 | 598 ft | 1 kts | 86° |
| 2026-05-05 00:57 | 32.91559 | -97.03095 | 598 ft | 4 kts | 88° |
| 2026-05-05 00:57 | 32.91559 | -97.03047 | 598 ft | 7 kts | 90° |
| 2026-05-05 00:57 | 32.91539 | -97.02997 | 598 ft | 6 kts | 148° |
| 2026-05-05 00:58 | 32.91499 | -97.02991 | 598 ft | 0 kts | 178° |
| 2026-05-05 00:58 | 32.91498 | -97.02991 | 598 ft | 3 kts | 178° |
| 2026-05-05 00:58 | 32.91303 | -97.02990 | 598 ft | 61 kts | 180° |
| 2026-05-05 00:59 | 32.90670 | -97.02992 | 599 ft | 119 kts | 180° |
| 2026-05-05 00:59 | 32.89673 | -97.03001 | 600 ft | 165 kts | 181° |
| 2026-05-05 00:59 | 32.88447 | -97.03011 | 972 ft | 178 kts | 179° |
| 2026-05-05 00:59 | 32.87207 | -97.03017 | 1649 ft | 179 kts | 182° |
| 2026-05-05 01:00 | 32.85969 | -97.03149 | 2344 ft | 179 kts | 188° |
| 2026-05-05 01:00 | 32.84685 | -97.03360 | 2553 ft | 195 kts | 189° |
| 2026-05-05 01:00 | 32.83271 | -97.03601 | 2680 ft | 216 kts | 189° |
| 2026-05-05 01:00 | 32.81748 | -97.03848 | 3162 ft | 223 kts | 189° |
| 2026-05-05 01:01 | 32.80204 | -97.04086 | 3764 ft | 225 kts | 190° |
| 2026-05-05 01:01 | 32.78621 | -97.04321 | 4230 ft | 233 kts | 191° |
| 2026-05-05 01:01 | 32.76996 | -97.04557 | 4737 ft | 238 kts | 190° |
| 2026-05-05 01:01 | 32.75335 | -97.04793 | 5227 ft | 243 kts | 191° |
| 2026-05-05 01:02 | 32.73633 | -97.05038 | 5699 ft | 249 kts | 193° |
| 2026-05-05 01:02 | 32.72003 | -97.05692 | 6143 ft | 248 kts | 215° |
| 2026-05-05 01:02 | 32.70733 | -97.07074 | 6498 ft | 253 kts | 238° |
| 2026-05-05 01:02 | 32.70035 | -97.09012 | 6875 ft | 259 kts | 257° |
| 2026-05-05 01:03 | 32.69624 | -97.11110 | 7383 ft | 261 kts | 257° |
| 2026-05-05 01:03 | 32.69208 | -97.13214 | 7929 ft | 263 kts | 259° |
| 2026-05-05 01:03 | 32.69066 | -97.15386 | 8477 ft | 265 kts | 269° |
| 2026-05-05 01:03 | 32.69034 | -97.17546 | 9048 ft | 265 kts | 268° |
| 2026-05-05 01:04 | 32.68992 | -97.19738 | 9622 ft | 266 kts | 268° |
| 2026-05-05 01:04 | 32.68899 | -97.24146 | 10598 ft | 271 kts | 269° |
| 2026-05-05 01:04 | 32.68853 | -97.26463 | 10731 ft | 288 kts | 269° |
| 2026-05-05 01:05 | 32.68802 | -97.28910 | 10852 ft | 304 kts | 269° |
| 2026-05-05 01:05 | 32.68749 | -97.31481 | 10974 ft | 319 kts | 269° |
| 2026-05-05 01:05 | 32.68694 | -97.34173 | 11086 ft | 333 kts | 269° |
| 2026-05-05 01:05 | 32.68636 | -97.36960 | 11390 ft | 341 kts | 269° |
| 2026-05-05 01:06 | 32.68575 | -97.39781 | 11847 ft | 343 kts | 269° |
| 2026-05-05 01:06 | 32.68513 | -97.42616 | 12323 ft | 345 kts | 269° |
| 2026-05-05 01:06 | 32.68451 | -97.45472 | 12791 ft | 347 kts | 269° |
| 2026-05-05 01:06 | 32.68388 | -97.48346 | 13243 ft | 350 kts | 269° |
| 2026-05-05 01:07 | 32.68323 | -97.51240 | 13726 ft | 352 kts | 269° |
| 2026-05-05 01:07 | 32.68258 | -97.54151 | 14163 ft | 354 kts | 269° |
| 2026-05-05 01:07 | 32.68191 | -97.57078 | 14592 ft | 355 kts | 270° |
| 2026-05-05 01:07 | 32.68123 | -97.60020 | 15019 ft | 357 kts | 270° |
| 2026-05-05 01:08 | 32.68054 | -97.62973 | 15456 ft | 359 kts | 270° |
| 2026-05-05 01:08 | 32.67983 | -97.65947 | 15881 ft | 361 kts | 270° |
| 2026-05-05 01:08 | 32.67911 | -97.68918 | 16297 ft | 363 kts | 270° |
| 2026-05-05 01:08 | 32.67839 | -97.71937 | 16587 ft | 365 kts | 270° |
| 2026-05-05 01:09 | 32.67740 | -97.74962 | 16972 ft | 368 kts | 268° |
| 2026-05-05 01:09 | 32.67555 | -97.78001 | 17355 ft | 370 kts | 267° |
| 2026-05-05 01:09 | 32.67312 | -97.81052 | 17729 ft | 373 kts | 266° |
| 2026-05-05 01:09 | 32.67043 | -97.84119 | 18094 ft | 375 kts | 266° |
| 2026-05-05 01:10 | 32.66769 | -97.87204 | 18423 ft | 376 kts | 266° |
| 2026-05-05 01:10 | 32.66503 | -97.90296 | 18780 ft | 377 kts | 267° |
| 2026-05-05 01:10 | 32.66248 | -97.93391 | 19143 ft | 377 kts | 267° |
| 2026-05-05 01:10 | 32.66002 | -97.96490 | 19524 ft | 377 kts | 268° |
| 2026-05-05 01:11 | 32.65759 | -97.99588 | 19887 ft | 377 kts | 267° |
| 2026-05-05 01:11 | 32.65515 | -98.02684 | 20255 ft | 377 kts | 268° |
| 2026-05-05 01:11 | 32.65269 | -98.05786 | 20614 ft | 378 kts | 268° |
| 2026-05-05 01:11 | 32.65021 | -98.08895 | 20968 ft | 378 kts | 268° |
| 2026-05-05 01:12 | 32.64773 | -98.12004 | 21313 ft | 379 kts | 268° |
| 2026-05-05 01:12 | 32.64523 | -98.15117 | 21663 ft | 379 kts | 268° |
| 2026-05-05 01:12 | 32.64274 | -98.18189 | 21994 ft | 380 kts | 268° |
| 2026-05-05 01:12 | 32.64021 | -98.21308 | 22315 ft | 380 kts | 268° |
| 2026-05-05 01:13 | 32.63771 | -98.24429 | 22634 ft | 381 kts | 268° |
| 2026-05-05 01:13 | 32.63519 | -98.27560 | 22957 ft | 381 kts | 268° |
| 2026-05-05 01:13 | 32.63266 | -98.30701 | 23271 ft | 382 kts | 268° |
| 2026-05-05 01:13 | 32.63014 | -98.33839 | 23535 ft | 383 kts | 269° |
| 2026-05-05 01:14 | 32.62761 | -98.36985 | 23764 ft | 384 kts | 268° |
| 2026-05-05 01:14 | 32.62504 | -98.40140 | 24008 ft | 385 kts | 268° |
| 2026-05-05 01:14 | 32.62243 | -98.43302 | 24240 ft | 386 kts | 268° |
| 2026-05-05 01:14 | 32.61980 | -98.46471 | 24486 ft | 387 kts | 268° |
| 2026-05-05 01:15 | 32.61714 | -98.49646 | 24736 ft | 387 kts | 268° |
| 2026-05-05 01:15 | 32.61448 | -98.52832 | 24974 ft | 388 kts | 268° |
| 2026-05-05 01:15 | 32.61185 | -98.56018 | 25214 ft | 389 kts | 268° |
| 2026-05-05 01:15 | 32.60921 | -98.59218 | 25461 ft | 390 kts | 268° |
| 2026-05-05 01:16 | 32.60653 | -98.62427 | 25699 ft | 391 kts | 268° |
| 2026-05-05 01:16 | 32.60380 | -98.65640 | 25942 ft | 392 kts | 268° |
| 2026-05-05 01:16 | 32.60106 | -98.68865 | 26169 ft | 393 kts | 268° |
| 2026-05-05 01:16 | 32.59835 | -98.72095 | 26389 ft | 394 kts | 268° |
| 2026-05-05 01:17 | 32.59562 | -98.75330 | 26609 ft | 395 kts | 268° |
| 2026-05-05 01:17 | 32.59287 | -98.78570 | 26824 ft | 396 kts | 268° |
| 2026-05-05 01:17 | 32.59011 | -98.81815 | 27026 ft | 396 kts | 268° |
| 2026-05-05 01:17 | 32.58734 | -98.85075 | 27226 ft | 397 kts | 268° |
| 2026-05-05 01:18 | 32.58453 | -98.88333 | 27405 ft | 398 kts | 268° |
| 2026-05-05 01:18 | 32.58170 | -98.91598 | 27604 ft | 398 kts | 268° |
| 2026-05-05 01:18 | 32.57886 | -98.94861 | 27730 ft | 395 kts | 268° |
| 2026-05-05 01:18 | 32.57611 | -98.98010 | 27754 ft | 386 kts | 268° |
| 2026-05-05 01:19 | 32.57334 | -99.01159 | 27761 ft | 382 kts | 268° |
| 2026-05-05 01:19 | 32.57063 | -99.04287 | 27756 ft | 381 kts | 268° |
| 2026-05-05 01:19 | 32.56794 | -99.07406 | 27727 ft | 381 kts | 268° |
| 2026-05-05 01:19 | 32.56524 | -99.10530 | 27718 ft | 381 kts | 268° |
| 2026-05-05 01:20 | 32.56255 | -99.13656 | 27730 ft | 381 kts | 268° |
| 2026-05-05 01:20 | 32.55985 | -99.16780 | 27723 ft | 381 kts | 268° |
| 2026-05-05 01:20 | 32.55711 | -99.19901 | 27723 ft | 381 kts | 268° |
| 2026-05-05 01:20 | 32.55435 | -99.23023 | 27730 ft | 381 kts | 268° |
| 2026-05-05 01:21 | 32.55158 | -99.26139 | 27726 ft | 381 kts | 268° |
| 2026-05-05 01:21 | 32.54880 | -99.29256 | 27719 ft | 381 kts | 268° |
| 2026-05-05 01:21 | 32.54599 | -99.32376 | 27720 ft | 380 kts | 268° |
| 2026-05-05 01:21 | 32.54337 | -99.35497 | 27716 ft | 380 kts | 269° |
| 2026-05-05 01:22 | 32.54131 | -99.38615 | 27732 ft | 379 kts | 270° |
| 2026-05-05 01:22 | 32.53958 | -99.41729 | 27734 ft | 379 kts | 270° |
| 2026-05-05 01:22 | 32.53795 | -99.44847 | 27736 ft | 379 kts | 270° |
| 2026-05-05 01:22 | 32.53630 | -99.47967 | 27738 ft | 378 kts | 270° |
| 2026-05-05 01:23 | 32.53458 | -99.51079 | 27749 ft | 378 kts | 270° |
| 2026-05-05 01:23 | 32.53276 | -99.54183 | 27763 ft | 378 kts | 270° |
| 2026-05-05 01:23 | 32.53088 | -99.57288 | 27768 ft | 377 kts | 269° |
| 2026-05-05 01:23 | 32.52901 | -99.60348 | 27768 ft | 377 kts | 269° |
| 2026-05-05 01:24 | 32.52708 | -99.63447 | 27768 ft | 377 kts | 269° |
| 2026-05-05 01:24 | 32.52515 | -99.66542 | 27773 ft | 377 kts | 269° |
| 2026-05-05 01:24 | 32.52321 | -99.69636 | 27767 ft | 377 kts | 269° |
| 2026-05-05 01:24 | 32.52129 | -99.72732 | 27768 ft | 376 kts | 269° |
| 2026-05-05 01:25 | 32.51938 | -99.75823 | 27768 ft | 376 kts | 269° |
| 2026-05-05 01:25 | 32.51746 | -99.78918 | 27738 ft | 376 kts | 269° |
| 2026-05-05 01:25 | 32.51553 | -99.82014 | 27743 ft | 377 kts | 269° |
| 2026-05-05 01:25 | 32.51362 | -99.85106 | 27754 ft | 376 kts | 269° |
| 2026-05-05 01:26 | 32.51169 | -99.88201 | 27756 ft | 376 kts | 269° |
| 2026-05-05 01:26 | 32.50973 | -99.91286 | 27757 ft | 376 kts | 269° |
| 2026-05-05 01:26 | 32.50773 | -99.94379 | 27752 ft | 376 kts | 269° |
| 2026-05-05 01:26 | 32.50573 | -99.97467 | 27749 ft | 376 kts | 269° |
| 2026-05-05 01:27 | 32.50375 | -100.00548 | 27743 ft | 376 kts | 269° |
| 2026-05-05 01:27 | 32.50177 | -100.03632 | 27737 ft | 375 kts | 269° |
| 2026-05-05 01:27 | 32.49978 | -100.06717 | 27731 ft | 375 kts | 269° |
| 2026-05-05 01:27 | 32.49778 | -100.09804 | 27723 ft | 375 kts | 269° |
| 2026-05-05 01:28 | 32.49581 | -100.12880 | 27716 ft | 375 kts | 269° |
| 2026-05-05 01:28 | 32.49383 | -100.15960 | 27715 ft | 375 kts | 269° |
| 2026-05-05 01:28 | 32.49182 | -100.19041 | 27704 ft | 375 kts | 269° |
| 2026-05-05 01:28 | 32.48978 | -100.22114 | 27679 ft | 374 kts | 269° |
| 2026-05-05 01:29 | 32.48771 | -100.25195 | 27670 ft | 375 kts | 268° |
| 2026-05-05 01:29 | 32.48563 | -100.28265 | 27664 ft | 375 kts | 268° |
| 2026-05-05 01:29 | 32.48353 | -100.31340 | 27784 ft | 375 kts | 268° |
| 2026-05-05 01:29 | 32.48147 | -100.34420 | 27797 ft | 375 kts | 269° |
| 2026-05-05 01:30 | 32.48012 | -100.36463 | 27805 ft | 375 kts | 269° |
| 2026-05-05 01:30 | 32.47810 | -100.39544 | 27806 ft | 375 kts | 269° |
| 2026-05-05 01:30 | 32.47609 | -100.42629 | 27807 ft | 376 kts | 269° |
| 2026-05-05 01:30 | 32.47405 | -100.45716 | 27815 ft | 376 kts | 269° |
| 2026-05-05 01:31 | 32.47200 | -100.48804 | 27818 ft | 376 kts | 269° |
| 2026-05-05 01:31 | 32.46995 | -100.51894 | 27815 ft | 376 kts | 269° |
| 2026-05-05 01:31 | 32.46791 | -100.54980 | 27819 ft | 376 kts | 269° |
| 2026-05-05 01:31 | 32.46584 | -100.58070 | 27799 ft | 376 kts | 268° |
| 2026-05-05 01:32 | 32.46376 | -100.61160 | 27785 ft | 376 kts | 268° |
| 2026-05-05 01:32 | 32.46166 | -100.64249 | 27774 ft | 377 kts | 268° |
| 2026-05-05 01:32 | 32.45954 | -100.67342 | 27763 ft | 377 kts | 268° |
| 2026-05-05 01:32 | 32.45742 | -100.70435 | 27752 ft | 377 kts | 268° |
| 2026-05-05 01:33 | 32.45529 | -100.73528 | 27742 ft | 377 kts | 268° |
| 2026-05-05 01:33 | 32.45316 | -100.76611 | 27729 ft | 377 kts | 268° |
| 2026-05-05 01:33 | 32.45099 | -100.79708 | 27711 ft | 377 kts | 268° |
| 2026-05-05 01:33 | 32.44884 | -100.82800 | 27715 ft | 377 kts | 268° |
| 2026-05-05 01:34 | 32.44671 | -100.85888 | 27718 ft | 376 kts | 268° |
| 2026-05-05 01:34 | 32.44463 | -100.88935 | 27722 ft | 376 kts | 268° |
| 2026-05-05 01:34 | 32.44251 | -100.92022 | 27723 ft | 376 kts | 268° |
| 2026-05-05 01:34 | 32.44035 | -100.95115 | 27722 ft | 376 kts | 268° |
| 2026-05-05 01:35 | 32.43815 | -100.98202 | 27721 ft | 376 kts | 268° |
| 2026-05-05 01:35 | 32.43596 | -101.01286 | 27719 ft | 376 kts | 268° |
| 2026-05-05 01:35 | 32.43377 | -101.04375 | 27718 ft | 376 kts | 268° |
| 2026-05-05 01:35 | 32.43158 | -101.07462 | 27715 ft | 376 kts | 268° |
| 2026-05-05 01:36 | 32.42939 | -101.10544 | 27710 ft | 376 kts | 268° |
| 2026-05-05 01:36 | 32.42719 | -101.13636 | 27705 ft | 376 kts | 268° |
| 2026-05-05 01:36 | 32.42498 | -101.16719 | 27700 ft | 377 kts | 268° |
| 2026-05-05 01:36 | 32.42273 | -101.19811 | 27695 ft | 377 kts | 268° |
| 2026-05-05 01:37 | 32.42048 | -101.22895 | 27692 ft | 376 kts | 268° |
| 2026-05-05 01:37 | 32.41824 | -101.25982 | 27692 ft | 376 kts | 268° |
| 2026-05-05 01:37 | 32.41597 | -101.29069 | 27692 ft | 376 kts | 268° |
| 2026-05-05 01:37 | 32.41370 | -101.32152 | 27691 ft | 376 kts | 268° |
| 2026-05-05 01:38 | 32.41141 | -101.35242 | 27690 ft | 377 kts | 268° |
| 2026-05-05 01:38 | 32.40912 | -101.38332 | 27690 ft | 377 kts | 268° |
| 2026-05-05 01:38 | 32.40681 | -101.41420 | 27692 ft | 377 kts | 268° |
| 2026-05-05 01:38 | 32.40449 | -101.44511 | 27693 ft | 377 kts | 268° |
| 2026-05-05 01:39 | 32.40221 | -101.47604 | 27697 ft | 377 kts | 268° |
| 2026-05-05 01:39 | 32.39993 | -101.50698 | 27699 ft | 377 kts | 268° |
| 2026-05-05 01:39 | 32.39762 | -101.53793 | 27700 ft | 377 kts | 268° |
| 2026-05-05 01:39 | 32.39529 | -101.56887 | 27701 ft | 377 kts | 268° |
| 2026-05-05 01:40 | 32.39296 | -101.59982 | 27701 ft | 378 kts | 268° |
| 2026-05-05 01:40 | 32.39063 | -101.63070 | 27708 ft | 378 kts | 268° |
| 2026-05-05 01:40 | 32.38831 | -101.66169 | 27710 ft | 378 kts | 268° |
| 2026-05-05 01:40 | 32.38597 | -101.69264 | 27708 ft | 378 kts | 267° |
| 2026-05-05 01:41 | 32.38359 | -101.72358 | 27708 ft | 378 kts | 267° |
| 2026-05-05 01:41 | 32.38119 | -101.75413 | 27712 ft | 378 kts | 267° |
| 2026-05-05 01:41 | 32.37876 | -101.78515 | 27713 ft | 378 kts | 267° |
| 2026-05-05 01:41 | 32.37632 | -101.81648 | 27714 ft | 378 kts | 267° |
| 2026-05-05 01:42 | 32.37393 | -101.84744 | 27714 ft | 378 kts | 267° |
| 2026-05-05 01:42 | 32.37157 | -101.87803 | 27715 ft | 378 kts | 267° |
| 2026-05-05 01:42 | 32.36921 | -101.90895 | 27723 ft | 377 kts | 267° |
| 2026-05-05 01:42 | 32.36679 | -101.93985 | 27724 ft | 378 kts | 267° |
| 2026-05-05 01:43 | 32.36436 | -101.97078 | 27719 ft | 378 kts | 267° |
| 2026-05-05 01:43 | 32.36192 | -102.00171 | 27719 ft | 378 kts | 267° |
| 2026-05-05 01:43 | 32.35944 | -102.03266 | 27719 ft | 378 kts | 267° |
| 2026-05-05 01:43 | 32.35699 | -102.06364 | 27713 ft | 378 kts | 266° |
| 2026-05-05 01:44 | 32.35454 | -102.09459 | 27717 ft | 378 kts | 266° |
| 2026-05-05 01:44 | 32.35203 | -102.12556 | 27717 ft | 379 kts | 266° |
| 2026-05-05 01:44 | 32.34954 | -102.15655 | 27718 ft | 379 kts | 266° |
| 2026-05-05 01:44 | 32.34705 | -102.18755 | 27720 ft | 379 kts | 266° |
| 2026-05-05 01:45 | 32.34455 | -102.21858 | 27727 ft | 379 kts | 266° |
| 2026-05-05 01:45 | 32.34204 | -102.24963 | 27728 ft | 379 kts | 266° |
| 2026-05-05 01:45 | 32.33954 | -102.28061 | 27727 ft | 379 kts | 266° |
| 2026-05-05 01:45 | 32.33702 | -102.31172 | 27730 ft | 379 kts | 266° |
| 2026-05-05 01:46 | 32.33453 | -102.34270 | 27742 ft | 379 kts | 266° |
| 2026-05-05 01:46 | 32.33205 | -102.37374 | 27736 ft | 379 kts | 266° |
| 2026-05-05 01:46 | 32.32955 | -102.40474 | 27739 ft | 379 kts | 266° |
| 2026-05-05 01:46 | 32.32700 | -102.43575 | 27731 ft | 379 kts | 266° |
| 2026-05-05 01:47 | 32.32440 | -102.46685 | 27731 ft | 380 kts | 266° |
| 2026-05-05 01:47 | 32.32184 | -102.49777 | 27735 ft | 380 kts | 266° |
| 2026-05-05 01:47 | 32.31931 | -102.52844 | 27737 ft | 380 kts | 266° |
| 2026-05-05 01:47 | 32.31673 | -102.55954 | 27740 ft | 380 kts | 266° |
| 2026-05-05 01:48 | 32.31414 | -102.59064 | 27744 ft | 380 kts | 266° |
| 2026-05-05 01:48 | 32.31152 | -102.62181 | 27750 ft | 381 kts | 266° |
| 2026-05-05 01:48 | 32.30891 | -102.65294 | 27748 ft | 381 kts | 266° |
| 2026-05-05 01:48 | 32.30630 | -102.68407 | 27753 ft | 380 kts | 266° |
| 2026-05-05 01:49 | 32.30367 | -102.71516 | 27759 ft | 380 kts | 266° |
| 2026-05-05 01:49 | 32.30104 | -102.74629 | 27758 ft | 380 kts | 266° |
| 2026-05-05 01:49 | 32.29839 | -102.77736 | 27753 ft | 380 kts | 265° |
| 2026-05-05 01:49 | 32.29571 | -102.80841 | 27760 ft | 380 kts | 265° |
| 2026-05-05 01:50 | 32.29301 | -102.83955 | 27756 ft | 380 kts | 265° |
| 2026-05-05 01:50 | 32.29036 | -102.87019 | 27766 ft | 380 kts | 265° |
| 2026-05-05 01:50 | 32.28770 | -102.90123 | 27758 ft | 380 kts | 265° |
| 2026-05-05 01:50 | 32.28504 | -102.93231 | 27768 ft | 380 kts | 265° |
| 2026-05-05 01:51 | 32.28240 | -102.96337 | 27769 ft | 380 kts | 265° |
| 2026-05-05 01:51 | 32.27974 | -102.99444 | 27769 ft | 380 kts | 265° |
| 2026-05-05 01:51 | 32.27705 | -103.02548 | 27762 ft | 380 kts | 265° |
| 2026-05-05 01:51 | 32.27434 | -103.05652 | 27760 ft | 379 kts | 265° |
| 2026-05-05 01:52 | 32.27163 | -103.08752 | 27772 ft | 379 kts | 265° |
| 2026-05-05 01:52 | 32.26890 | -103.11849 | 27772 ft | 379 kts | 265° |
| 2026-05-05 01:52 | 32.26616 | -103.14952 | 27773 ft | 379 kts | 265° |
| 2026-05-05 01:52 | 32.26342 | -103.18049 | 27766 ft | 379 kts | 265° |
| 2026-05-05 01:53 | 32.26069 | -103.21143 | 27767 ft | 379 kts | 265° |
| 2026-05-05 01:53 | 32.25794 | -103.24238 | 27775 ft | 378 kts | 265° |
| 2026-05-05 01:53 | 32.25520 | -103.27327 | 27775 ft | 378 kts | 265° |
| 2026-05-05 01:53 | 32.25245 | -103.30424 | 27774 ft | 378 kts | 265° |
| 2026-05-05 01:54 | 32.24969 | -103.33514 | 27766 ft | 378 kts | 265° |
| 2026-05-05 01:54 | 32.24691 | -103.36601 | 27773 ft | 378 kts | 265° |
| 2026-05-05 01:54 | 32.24412 | -103.39687 | 27779 ft | 378 kts | 265° |
| 2026-05-05 01:54 | 32.24136 | -103.42735 | 27774 ft | 378 kts | 265° |
| 2026-05-05 01:55 | 32.23851 | -103.45855 | 27775 ft | 378 kts | 265° |
| 2026-05-05 01:55 | 32.23571 | -103.48944 | 27774 ft | 378 kts | 265° |
| 2026-05-05 01:55 | 32.23295 | -103.51991 | 27801 ft | 378 kts | 264° |
| 2026-05-05 01:55 | 32.23013 | -103.55112 | 27802 ft | 377 kts | 265° |
| 2026-05-05 01:56 | 32.22735 | -103.58186 | 27805 ft | 377 kts | 264° |
| 2026-05-05 01:56 | 32.22460 | -103.61217 | 27801 ft | 376 kts | 264° |
| 2026-05-05 01:56 | 32.22178 | -103.64289 | 27798 ft | 376 kts | 264° |
| 2026-05-05 01:56 | 32.21894 | -103.67354 | 27800 ft | 375 kts | 264° |
| 2026-05-05 01:57 | 32.21608 | -103.70420 | 27795 ft | 375 kts | 264° |
| 2026-05-05 01:57 | 32.21321 | -103.73476 | 27793 ft | 375 kts | 264° |
| 2026-05-05 01:57 | 32.21035 | -103.76538 | 27791 ft | 375 kts | 264° |
| 2026-05-05 01:57 | 32.20754 | -103.79596 | 27790 ft | 375 kts | 264° |
| 2026-05-05 01:58 | 32.20471 | -103.82653 | 27791 ft | 375 kts | 264° |
| 2026-05-05 01:58 | 32.20186 | -103.85711 | 27772 ft | 375 kts | 264° |
| 2026-05-05 01:58 | 32.19899 | -103.88769 | 27766 ft | 375 kts | 264° |
| 2026-05-05 01:58 | 32.19609 | -103.91831 | 27768 ft | 375 kts | 264° |
| 2026-05-05 01:59 | 32.19317 | -103.94890 | 27767 ft | 376 kts | 264° |
| 2026-05-05 01:59 | 32.19022 | -103.97955 | 27763 ft | 376 kts | 264° |
| 2026-05-05 01:59 | 32.18729 | -104.01020 | 27768 ft | 376 kts | 264° |
| 2026-05-05 01:59 | 32.18441 | -104.04086 | 27767 ft | 376 kts | 264° |
| 2026-05-05 02:00 | 32.18153 | -104.07155 | 27813 ft | 376 kts | 264° |
| 2026-05-05 02:00 | 32.17863 | -104.10227 | 27823 ft | 376 kts | 264° |
| 2026-05-05 02:00 | 32.17570 | -104.13294 | 27818 ft | 376 kts | 264° |
| 2026-05-05 02:00 | 32.17277 | -104.16363 | 27830 ft | 376 kts | 264° |
| 2026-05-05 02:01 | 32.16980 | -104.19435 | 27830 ft | 376 kts | 264° |
| 2026-05-05 02:01 | 32.16679 | -104.22504 | 27805 ft | 377 kts | 264° |
| 2026-05-05 02:01 | 32.16378 | -104.25580 | 27802 ft | 378 kts | 263° |
| 2026-05-05 02:01 | 32.16076 | -104.28670 | 27813 ft | 379 kts | 263° |
| 2026-05-05 02:02 | 32.15774 | -104.31767 | 27804 ft | 381 kts | 263° |
| 2026-05-05 02:02 | 32.15471 | -104.34872 | 27811 ft | 382 kts | 263° |
| 2026-05-05 02:02 | 32.15167 | -104.37992 | 27810 ft | 383 kts | 263° |
| 2026-05-05 02:02 | 32.14863 | -104.41116 | 27810 ft | 384 kts | 263° |
| 2026-05-05 02:03 | 32.14560 | -104.44210 | 27804 ft | 384 kts | 263° |
| 2026-05-05 02:03 | 32.14253 | -104.47347 | 27799 ft | 385 kts | 263° |
| 2026-05-05 02:03 | 32.13943 | -104.50481 | 27804 ft | 385 kts | 263° |
| 2026-05-05 02:03 | 32.13628 | -104.53623 | 27799 ft | 385 kts | 263° |
| 2026-05-05 02:04 | 32.13313 | -104.56757 | 27791 ft | 385 kts | 263° |
| 2026-05-05 02:04 | 32.13000 | -104.59893 | 27782 ft | 385 kts | 263° |
| 2026-05-05 02:04 | 32.12689 | -104.63027 | 27781 ft | 385 kts | 263° |
| 2026-05-05 02:04 | 32.12378 | -104.66171 | 27780 ft | 385 kts | 263° |
| 2026-05-05 02:05 | 32.12062 | -104.69314 | 27790 ft | 386 kts | 263° |
| 2026-05-05 02:05 | 32.11744 | -104.72456 | 27793 ft | 386 kts | 263° |
| 2026-05-05 02:05 | 32.11424 | -104.75599 | 27795 ft | 385 kts | 263° |
| 2026-05-05 02:05 | 32.11105 | -104.78731 | 27793 ft | 385 kts | 263° |
| 2026-05-05 02:06 | 32.10787 | -104.81870 | 27790 ft | 385 kts | 263° |
| 2026-05-05 02:06 | 32.10470 | -104.85009 | 27790 ft | 385 kts | 263° |
| 2026-05-05 02:06 | 32.10152 | -104.88147 | 27790 ft | 385 kts | 263° |
| 2026-05-05 02:06 | 32.09833 | -104.91285 | 27788 ft | 385 kts | 263° |
| 2026-05-05 02:07 | 32.09513 | -104.94419 | 27785 ft | 385 kts | 263° |
| 2026-05-05 02:07 | 32.09192 | -104.97558 | 27785 ft | 385 kts | 263° |
| 2026-05-05 02:07 | 32.08871 | -105.00693 | 27786 ft | 385 kts | 263° |
| 2026-05-05 02:07 | 32.08552 | -105.03785 | 27786 ft | 385 kts | 263° |
| 2026-05-05 02:08 | 32.08224 | -105.06956 | 27784 ft | 385 kts | 263° |
| 2026-05-05 02:08 | 32.07901 | -105.10048 | 27784 ft | 385 kts | 263° |
| 2026-05-05 02:08 | 32.07569 | -105.13217 | 27785 ft | 385 kts | 263° |
| 2026-05-05 02:08 | 32.07247 | -105.16303 | 27785 ft | 384 kts | 263° |
| 2026-05-05 02:09 | 32.06917 | -105.19472 | 27784 ft | 385 kts | 263° |
| 2026-05-05 02:09 | 32.06596 | -105.22571 | 27780 ft | 385 kts | 263° |
| 2026-05-05 02:09 | 32.06271 | -105.25699 | 27778 ft | 384 kts | 263° |
| 2026-05-05 02:09 | 32.05944 | -105.28825 | 27787 ft | 384 kts | 263° |
| 2026-05-05 02:10 | 32.05615 | -105.31952 | 27791 ft | 384 kts | 262° |
| 2026-05-05 02:10 | 32.05282 | -105.35078 | 27794 ft | 384 kts | 262° |
| 2026-05-05 02:10 | 32.04948 | -105.38195 | 27794 ft | 384 kts | 262° |
| 2026-05-05 02:10 | 32.04615 | -105.41314 | 27794 ft | 383 kts | 262° |
| 2026-05-05 02:11 | 32.04285 | -105.44429 | 27793 ft | 383 kts | 262° |
| 2026-05-05 02:11 | 32.03955 | -105.47544 | 27792 ft | 382 kts | 262° |
| 2026-05-05 02:11 | 32.03623 | -105.50653 | 27793 ft | 382 kts | 262° |
| 2026-05-05 02:11 | 32.03286 | -105.53759 | 27792 ft | 382 kts | 262° |
| 2026-05-05 02:12 | 32.02951 | -105.56868 | 27793 ft | 382 kts | 262° |
| 2026-05-05 02:12 | 32.02285 | -105.63087 | 27788 ft | 382 kts | 262° |
| 2026-05-05 02:12 | 32.01951 | -105.66190 | 27818 ft | 382 kts | 262° |
| 2026-05-05 02:13 | 32.01615 | -105.69296 | 27818 ft | 382 kts | 262° |
| 2026-05-05 02:13 | 32.01278 | -105.72397 | 27817 ft | 381 kts | 262° |
| 2026-05-05 02:13 | 32.00937 | -105.75489 | 27818 ft | 380 kts | 262° |
| 2026-05-05 02:13 | 32.00596 | -105.78586 | 27819 ft | 380 kts | 262° |
| 2026-05-05 02:14 | 32.00262 | -105.81627 | 27817 ft | 380 kts | 262° |
| 2026-05-05 02:14 | 31.99924 | -105.84709 | 27814 ft | 380 kts | 262° |
| 2026-05-05 02:14 | 31.99583 | -105.87794 | 27811 ft | 379 kts | 262° |
| 2026-05-05 02:14 | 31.99354 | -105.89877 | 27809 ft | 379 kts | 262° |
| 2026-05-05 02:15 | 31.98905 | -105.93954 | 27793 ft | 379 kts | 262° |
| 2026-05-05 02:15 | 31.98566 | -105.97033 | 27791 ft | 379 kts | 262° |
| 2026-05-05 02:15 | 31.98226 | -106.00110 | 27808 ft | 379 kts | 261° |
| 2026-05-05 02:15 | 31.97883 | -106.03188 | 27826 ft | 379 kts | 261° |
| 2026-05-05 02:16 | 31.97539 | -106.06266 | 27841 ft | 379 kts | 261° |
| 2026-05-05 02:16 | 31.97195 | -106.09347 | 27837 ft | 379 kts | 261° |
| 2026-05-05 02:16 | 31.96967 | -106.11383 | 27849 ft | 378 kts | 261° |
| 2026-05-05 02:16 | 31.96621 | -106.14459 | 27863 ft | 378 kts | 261° |
| 2026-05-05 02:17 | 31.96274 | -106.17527 | 27873 ft | 378 kts | 261° |
| 2026-05-05 02:17 | 31.95815 | -106.21597 | 27886 ft | 378 kts | 261° |
| 2026-05-05 02:17 | 31.95470 | -106.24664 | 27897 ft | 378 kts | 261° |
| 2026-05-05 02:17 | 31.95312 | -106.27755 | 27906 ft | 380 kts | 270° |
| 2026-05-05 02:18 | 31.95482 | -106.29856 | 27918 ft | 382 kts | 274° |
| 2026-05-05 02:18 | 31.95854 | -106.32955 | 27920 ft | 382 kts | 274° |
| 2026-05-05 02:18 | 31.96223 | -106.36050 | 27913 ft | 382 kts | 274° |
| 2026-05-05 02:18 | 31.96589 | -106.39149 | 27915 ft | 383 kts | 274° |
| 2026-05-05 02:19 | 31.96952 | -106.42255 | 27905 ft | 383 kts | 274° |
| 2026-05-05 02:19 | 31.97313 | -106.45367 | 27896 ft | 383 kts | 274° |
| 2026-05-05 02:19 | 31.97673 | -106.48477 | 27882 ft | 383 kts | 274° |
| 2026-05-05 02:19 | 31.98030 | -106.51549 | 27870 ft | 383 kts | 274° |
| 2026-05-05 02:20 | 31.98394 | -106.54665 | 27902 ft | 384 kts | 274° |
| 2026-05-05 02:20 | 31.98759 | -106.57787 | 27919 ft | 385 kts | 274° |
| 2026-05-05 02:20 | 31.99123 | -106.60911 | 27931 ft | 385 kts | 274° |
| 2026-05-05 02:20 | 31.99484 | -106.64034 | 27941 ft | 385 kts | 274° |
| 2026-05-05 02:21 | 31.99842 | -106.67158 | 27946 ft | 385 kts | 274° |
| 2026-05-05 02:21 | 32.00199 | -106.70283 | 27942 ft | 385 kts | 274° |
| 2026-05-05 02:21 | 32.00559 | -106.73411 | 27936 ft | 385 kts | 274° |
| 2026-05-05 02:21 | 32.00918 | -106.76533 | 27926 ft | 385 kts | 274° |
| 2026-05-05 02:22 | 32.01272 | -106.79663 | 27916 ft | 385 kts | 274° |
| 2026-05-05 02:22 | 32.01626 | -106.82796 | 27904 ft | 386 kts | 274° |
| 2026-05-05 02:22 | 32.01980 | -106.85926 | 27908 ft | 386 kts | 274° |
| 2026-05-05 02:22 | 32.02337 | -106.89063 | 27865 ft | 386 kts | 274° |
| 2026-05-05 02:23 | 32.02693 | -106.92199 | 27871 ft | 386 kts | 274° |
| 2026-05-05 02:23 | 32.03049 | -106.95329 | 27871 ft | 386 kts | 274° |
| 2026-05-05 02:23 | 32.03403 | -106.98465 | 27869 ft | 386 kts | 274° |
| 2026-05-05 02:23 | 32.03753 | -107.01599 | 27865 ft | 385 kts | 274° |
| 2026-05-05 02:24 | 32.04104 | -107.04732 | 27860 ft | 385 kts | 274° |
| 2026-05-05 02:24 | 32.04454 | -107.07862 | 27849 ft | 385 kts | 273° |
| 2026-05-05 02:24 | 32.04800 | -107.10991 | 27836 ft | 385 kts | 273° |
| 2026-05-05 02:24 | 32.05149 | -107.14129 | 27824 ft | 385 kts | 273° |
| 2026-05-05 02:25 | 32.05491 | -107.17223 | 27810 ft | 385 kts | 273° |
| 2026-05-05 02:25 | 32.05836 | -107.20356 | 27799 ft | 386 kts | 273° |
| 2026-05-05 02:25 | 32.06183 | -107.23492 | 27785 ft | 386 kts | 273° |
| 2026-05-05 02:25 | 32.06532 | -107.26634 | 27789 ft | 386 kts | 273° |
| 2026-05-05 02:26 | 32.06880 | -107.29772 | 27792 ft | 386 kts | 273° |
| 2026-05-05 02:26 | 32.07227 | -107.32912 | 27787 ft | 386 kts | 273° |
| 2026-05-05 02:26 | 32.07570 | -107.36047 | 27790 ft | 386 kts | 273° |
| 2026-05-05 02:26 | 32.07908 | -107.39182 | 27808 ft | 386 kts | 273° |
| 2026-05-05 02:27 | 32.08245 | -107.42320 | 27831 ft | 386 kts | 272° |
| 2026-05-05 02:27 | 32.08584 | -107.45464 | 27845 ft | 386 kts | 272° |
| 2026-05-05 02:27 | 32.08927 | -107.48601 | 27863 ft | 386 kts | 273° |
| 2026-05-05 02:27 | 32.09272 | -107.51747 | 27878 ft | 386 kts | 273° |
| 2026-05-05 02:28 | 32.09615 | -107.54889 | 27893 ft | 387 kts | 272° |
| 2026-05-05 02:28 | 32.09957 | -107.58032 | 27906 ft | 387 kts | 272° |
| 2026-05-05 02:28 | 32.10296 | -107.61176 | 27919 ft | 387 kts | 272° |
| 2026-05-05 02:28 | 32.10630 | -107.64324 | 27930 ft | 387 kts | 272° |
| 2026-05-05 02:29 | 32.10962 | -107.67476 | 27938 ft | 388 kts | 272° |
| 2026-05-05 02:29 | 32.11297 | -107.70635 | 27946 ft | 387 kts | 272° |
| 2026-05-05 02:29 | 32.11631 | -107.73791 | 27948 ft | 387 kts | 272° |
| 2026-05-05 02:29 | 32.11965 | -107.76940 | 27953 ft | 387 kts | 272° |
| 2026-05-05 02:30 | 32.12298 | -107.80088 | 27948 ft | 387 kts | 272° |
| 2026-05-05 02:30 | 32.12633 | -107.83242 | 27813 ft | 387 kts | 272° |
| 2026-05-05 02:30 | 32.12963 | -107.86355 | 27812 ft | 387 kts | 272° |
| 2026-05-05 02:30 | 32.13297 | -107.89508 | 27816 ft | 387 kts | 272° |
| 2026-05-05 02:31 | 32.13630 | -107.92657 | 27818 ft | 387 kts | 272° |
| 2026-05-05 02:31 | 32.13963 | -107.95803 | 27817 ft | 387 kts | 272° |
| 2026-05-05 02:31 | 32.14295 | -107.98955 | 27817 ft | 387 kts | 272° |
| 2026-05-05 02:31 | 32.14625 | -108.02109 | 27816 ft | 387 kts | 272° |
| 2026-05-05 02:32 | 32.14953 | -108.05262 | 27822 ft | 387 kts | 272° |
| 2026-05-05 02:32 | 32.15278 | -108.08411 | 27822 ft | 387 kts | 272° |
| 2026-05-05 02:32 | 32.15603 | -108.11567 | 27827 ft | 387 kts | 272° |
| 2026-05-05 02:32 | 32.15931 | -108.14717 | 27827 ft | 387 kts | 272° |
| 2026-05-05 02:33 | 32.16258 | -108.17871 | 27831 ft | 387 kts | 272° |
| 2026-05-05 02:33 | 32.16579 | -108.21021 | 27833 ft | 387 kts | 272° |
| 2026-05-05 02:33 | 32.16896 | -108.24173 | 27832 ft | 387 kts | 272° |
| 2026-05-05 02:33 | 32.17211 | -108.27300 | 27833 ft | 387 kts | 272° |
| 2026-05-05 02:34 | 32.17531 | -108.30461 | 27835 ft | 387 kts | 272° |
| 2026-05-05 02:34 | 32.17851 | -108.33612 | 27848 ft | 387 kts | 272° |
| 2026-05-05 02:34 | 32.18172 | -108.36760 | 27866 ft | 387 kts | 272° |
| 2026-05-05 02:34 | 32.18492 | -108.39913 | 27883 ft | 387 kts | 272° |
| 2026-05-05 02:35 | 32.18812 | -108.43069 | 27918 ft | 387 kts | 272° |
| 2026-05-05 02:35 | 32.19131 | -108.46220 | 27941 ft | 387 kts | 272° |
| 2026-05-05 02:35 | 32.19445 | -108.49367 | 27959 ft | 386 kts | 271° |
| 2026-05-05 02:35 | 32.19757 | -108.52519 | 27973 ft | 386 kts | 271° |
| 2026-05-05 02:36 | 32.20070 | -108.55659 | 27986 ft | 385 kts | 272° |
| 2026-05-05 02:36 | 32.20385 | -108.58802 | 27998 ft | 385 kts | 272° |
| 2026-05-05 02:36 | 32.20702 | -108.61945 | 28006 ft | 385 kts | 272° |
| 2026-05-05 02:37 | 32.21322 | -108.68172 | 28012 ft | 384 kts | 272° |
| 2026-05-05 02:37 | 32.21940 | -108.74442 | 28014 ft | 384 kts | 271° |
| 2026-05-05 02:37 | 32.22244 | -108.77571 | 27845 ft | 384 kts | 271° |
| 2026-05-05 02:38 | 32.22546 | -108.80712 | 27867 ft | 384 kts | 271° |
| 2026-05-05 02:38 | 32.22847 | -108.83840 | 27867 ft | 383 kts | 271° |
| 2026-05-05 02:38 | 32.23149 | -108.86968 | 27866 ft | 383 kts | 271° |
| 2026-05-05 02:38 | 32.23455 | -108.90093 | 27874 ft | 383 kts | 271° |
| 2026-05-05 02:39 | 32.23762 | -108.93209 | 27884 ft | 382 kts | 271° |
| 2026-05-05 02:39 | 32.24067 | -108.96330 | 27874 ft | 382 kts | 271° |
| 2026-05-05 02:39 | 32.24370 | -108.99450 | 27873 ft | 382 kts | 271° |
| 2026-05-05 02:39 | 32.24671 | -109.02572 | 27869 ft | 382 kts | 271° |
| 2026-05-05 02:40 | 32.24968 | -109.05692 | 27855 ft | 382 kts | 271° |
| 2026-05-05 02:40 | 32.25265 | -109.08811 | 27853 ft | 382 kts | 271° |
| 2026-05-05 02:40 | 32.25563 | -109.11930 | 27849 ft | 382 kts | 271° |
| 2026-05-05 02:40 | 32.25859 | -109.15053 | 27871 ft | 382 kts | 271° |
| 2026-05-05 02:41 | 32.26148 | -109.18135 | 27868 ft | 382 kts | 271° |
| 2026-05-05 02:41 | 32.26439 | -109.21253 | 27865 ft | 382 kts | 271° |
| 2026-05-05 02:41 | 32.26735 | -109.24373 | 27862 ft | 382 kts | 271° |
| 2026-05-05 02:41 | 32.27163 | -109.27479 | 27865 ft | 386 kts | 277° |
| 2026-05-05 02:42 | 32.27834 | -109.30555 | 27863 ft | 387 kts | 278° |
| 2026-05-05 02:42 | 32.28508 | -109.33635 | 27859 ft | 387 kts | 278° |
| 2026-05-05 02:42 | 32.29178 | -109.36713 | 27857 ft | 387 kts | 278° |
| 2026-05-05 02:42 | 32.29845 | -109.39791 | 27862 ft | 387 kts | 278° |
| 2026-05-05 02:43 | 32.30507 | -109.42869 | 27862 ft | 387 kts | 277° |
| 2026-05-05 02:43 | 32.31166 | -109.45954 | 27861 ft | 387 kts | 277° |
| 2026-05-05 02:43 | 32.31822 | -109.49035 | 27868 ft | 387 kts | 277° |
| 2026-05-05 02:43 | 32.32478 | -109.52115 | 27870 ft | 387 kts | 277° |
| 2026-05-05 02:44 | 32.33139 | -109.55200 | 27875 ft | 387 kts | 277° |
| 2026-05-05 02:44 | 32.33802 | -109.58276 | 27871 ft | 387 kts | 277° |
| 2026-05-05 02:44 | 32.34466 | -109.61358 | 27867 ft | 387 kts | 277° |
| 2026-05-05 02:44 | 32.35128 | -109.64442 | 27870 ft | 386 kts | 277° |
| 2026-05-05 02:45 | 32.35784 | -109.67520 | 27880 ft | 386 kts | 277° |
| 2026-05-05 02:45 | 32.36439 | -109.70599 | 27880 ft | 386 kts | 277° |
| 2026-05-05 02:45 | 32.37083 | -109.73644 | 27897 ft | 386 kts | 277° |
| 2026-05-05 02:45 | 32.37733 | -109.76728 | 27891 ft | 387 kts | 277° |
| 2026-05-05 02:46 | 32.38383 | -109.79818 | 27879 ft | 387 kts | 277° |
| 2026-05-05 02:46 | 32.39038 | -109.82913 | 27903 ft | 387 kts | 277° |
| 2026-05-05 02:46 | 32.39693 | -109.86000 | 27900 ft | 388 kts | 277° |
| 2026-05-05 02:46 | 32.40349 | -109.89103 | 27901 ft | 388 kts | 277° |
| 2026-05-05 02:47 | 32.41000 | -109.92201 | 27899 ft | 388 kts | 277° |
| 2026-05-05 02:47 | 32.41652 | -109.95296 | 27912 ft | 388 kts | 277° |
| 2026-05-05 02:47 | 32.42304 | -109.98391 | 27911 ft | 388 kts | 277° |
| 2026-05-05 02:47 | 32.42954 | -110.01492 | 27911 ft | 388 kts | 277° |
| 2026-05-05 02:48 | 32.43604 | -110.04590 | 27911 ft | 388 kts | 277° |
| 2026-05-05 02:48 | 32.44255 | -110.07686 | 27920 ft | 388 kts | 277° |
| 2026-05-05 02:48 | 32.44904 | -110.10785 | 27919 ft | 388 kts | 277° |
| 2026-05-05 02:48 | 32.45551 | -110.13884 | 27930 ft | 388 kts | 277° |
| 2026-05-05 02:49 | 32.46197 | -110.16982 | 27928 ft | 388 kts | 276° |
| 2026-05-05 02:49 | 32.46843 | -110.20088 | 27925 ft | 388 kts | 276° |
| 2026-05-05 02:49 | 32.47489 | -110.23189 | 27925 ft | 388 kts | 276° |
| 2026-05-05 02:49 | 32.48134 | -110.26294 | 27925 ft | 388 kts | 276° |
| 2026-05-05 02:50 | 32.48778 | -110.29406 | 27928 ft | 389 kts | 276° |
| 2026-05-05 02:50 | 32.49411 | -110.32474 | 27929 ft | 389 kts | 276° |
| 2026-05-05 02:50 | 32.50062 | -110.35625 | 27932 ft | 389 kts | 276° |
| 2026-05-05 02:50 | 32.50705 | -110.38744 | 27932 ft | 389 kts | 276° |
| 2026-05-05 02:51 | 32.51339 | -110.41808 | 27952 ft | 389 kts | 276° |
| 2026-05-05 02:51 | 32.51984 | -110.44917 | 27951 ft | 388 kts | 276° |
| 2026-05-05 02:51 | 32.52626 | -110.48019 | 27969 ft | 388 kts | 276° |
| 2026-05-05 02:51 | 32.53267 | -110.51123 | 27965 ft | 388 kts | 276° |
| 2026-05-05 02:52 | 32.53902 | -110.54226 | 27957 ft | 387 kts | 276° |
| 2026-05-05 02:52 | 32.54536 | -110.57328 | 27953 ft | 387 kts | 276° |
| 2026-05-05 02:52 | 32.55167 | -110.60422 | 27948 ft | 387 kts | 276° |
| 2026-05-05 02:52 | 32.55799 | -110.63515 | 27951 ft | 386 kts | 276° |
| 2026-05-05 02:53 | 32.56432 | -110.66615 | 27947 ft | 386 kts | 276° |
| 2026-05-05 02:53 | 32.57064 | -110.69709 | 27935 ft | 386 kts | 276° |
| 2026-05-05 02:53 | 32.57695 | -110.72804 | 27932 ft | 386 kts | 276° |
| 2026-05-05 02:53 | 32.58327 | -110.75902 | 27931 ft | 386 kts | 276° |
| 2026-05-05 02:54 | 32.58958 | -110.79002 | 27934 ft | 387 kts | 276° |
| 2026-05-05 02:54 | 32.59585 | -110.82101 | 27952 ft | 387 kts | 276° |
| 2026-05-05 02:54 | 32.60210 | -110.85201 | 27948 ft | 387 kts | 276° |
| 2026-05-05 02:54 | 32.60836 | -110.88302 | 27949 ft | 387 kts | 276° |
| 2026-05-05 02:55 | 32.61462 | -110.91402 | 27948 ft | 386 kts | 276° |
| 2026-05-05 02:55 | 32.62088 | -110.94503 | 27949 ft | 386 kts | 276° |
| 2026-05-05 02:55 | 32.62702 | -110.97553 | 27944 ft | 386 kts | 276° |
| 2026-05-05 02:55 | 32.63326 | -111.00657 | 27945 ft | 386 kts | 276° |
| 2026-05-05 02:56 | 32.63948 | -111.03752 | 27945 ft | 386 kts | 276° |
| 2026-05-05 02:56 | 32.64573 | -111.06850 | 27956 ft | 386 kts | 276° |
| 2026-05-05 02:56 | 32.65196 | -111.09950 | 27987 ft | 386 kts | 276° |
| 2026-05-05 02:56 | 32.65816 | -111.13056 | 27985 ft | 386 kts | 276° |
| 2026-05-05 02:57 | 32.66435 | -111.16159 | 27988 ft | 386 kts | 276° |
| 2026-05-05 02:57 | 32.67054 | -111.19267 | 27973 ft | 387 kts | 276° |
| 2026-05-05 02:57 | 32.67669 | -111.22374 | 27977 ft | 387 kts | 276° |
| 2026-05-05 02:57 | 32.68286 | -111.25491 | 27964 ft | 388 kts | 276° |
| 2026-05-05 02:58 | 32.68897 | -111.28567 | 27974 ft | 388 kts | 276° |
| 2026-05-05 02:58 | 32.69519 | -111.31687 | 27967 ft | 388 kts | 276° |
| 2026-05-05 02:58 | 32.70142 | -111.34810 | 27961 ft | 388 kts | 276° |
| 2026-05-05 02:58 | 32.70761 | -111.37929 | 27959 ft | 388 kts | 276° |
| 2026-05-05 02:59 | 32.71381 | -111.41058 | 27965 ft | 389 kts | 276° |
| 2026-05-05 02:59 | 32.71998 | -111.44190 | 27956 ft | 389 kts | 276° |
| 2026-05-05 02:59 | 32.72613 | -111.47322 | 27954 ft | 388 kts | 276° |
| 2026-05-05 02:59 | 32.73219 | -111.50402 | 27931 ft | 388 kts | 276° |
| 2026-05-05 03:00 | 32.73835 | -111.53539 | 27934 ft | 388 kts | 276° |
| 2026-05-05 03:00 | 32.74450 | -111.56668 | 27921 ft | 388 kts | 276° |
| 2026-05-05 03:00 | 32.75063 | -111.59791 | 27921 ft | 388 kts | 276° |
| 2026-05-05 03:00 | 32.75674 | -111.62918 | 27927 ft | 388 kts | 276° |
| 2026-05-05 03:01 | 32.76283 | -111.66042 | 27932 ft | 388 kts | 276° |
| 2026-05-05 03:01 | 32.76892 | -111.69169 | 27934 ft | 389 kts | 276° |
| 2026-05-05 03:01 | 32.77503 | -111.72295 | 27937 ft | 389 kts | 276° |
| 2026-05-05 03:01 | 32.78113 | -111.75423 | 27949 ft | 389 kts | 276° |
| 2026-05-05 03:02 | 32.78721 | -111.78553 | 27953 ft | 389 kts | 276° |
| 2026-05-05 03:02 | 32.79325 | -111.81688 | 27945 ft | 389 kts | 275° |
| 2026-05-05 03:02 | 32.79929 | -111.84831 | 27938 ft | 390 kts | 275° |
| 2026-05-05 03:02 | 32.80535 | -111.87973 | 27933 ft | 391 kts | 275° |
| 2026-05-05 03:03 | 32.81145 | -111.91124 | 27926 ft | 391 kts | 275° |
| 2026-05-05 03:03 | 32.81754 | -111.94278 | 27923 ft | 392 kts | 275° |
| 2026-05-05 03:03 | 32.82362 | -111.97430 | 27920 ft | 392 kts | 275° |
| 2026-05-05 03:03 | 32.82969 | -112.00590 | 27917 ft | 392 kts | 275° |
| 2026-05-05 03:04 | 32.83579 | -112.03753 | 27916 ft | 392 kts | 275° |
| 2026-05-05 03:04 | 32.84187 | -112.06914 | 27914 ft | 392 kts | 275° |
| 2026-05-05 03:04 | 32.84785 | -112.10039 | 27912 ft | 392 kts | 275° |
| 2026-05-05 03:04 | 32.85387 | -112.13202 | 27916 ft | 392 kts | 275° |
| 2026-05-05 03:05 | 32.85991 | -112.16367 | 27908 ft | 392 kts | 274° |
| 2026-05-05 03:05 | 32.86595 | -112.19529 | 27916 ft | 392 kts | 275° |
| 2026-05-05 03:05 | 32.87201 | -112.22691 | 27911 ft | 392 kts | 275° |
| 2026-05-05 03:05 | 32.87803 | -112.25847 | 27909 ft | 391 kts | 275° |
| 2026-05-05 03:06 | 32.88401 | -112.29005 | 27909 ft | 391 kts | 275° |
| 2026-05-05 03:06 | 32.88998 | -112.32161 | 27902 ft | 390 kts | 274° |
| 2026-05-05 03:06 | 32.89592 | -112.35307 | 27905 ft | 390 kts | 275° |
| 2026-05-05 03:06 | 32.90185 | -112.38457 | 27906 ft | 390 kts | 275° |
| 2026-05-05 03:07 | 32.90780 | -112.41602 | 27923 ft | 390 kts | 275° |
| 2026-05-05 03:07 | 32.91376 | -112.44757 | 27912 ft | 391 kts | 275° |
| 2026-05-05 03:07 | 32.91971 | -112.47913 | 27924 ft | 391 kts | 274° |
| 2026-05-05 03:07 | 32.92565 | -112.51068 | 27933 ft | 391 kts | 274° |
| 2026-05-05 03:08 | 32.93159 | -112.54225 | 27934 ft | 391 kts | 274° |
| 2026-05-05 03:08 | 32.93753 | -112.57388 | 27931 ft | 391 kts | 274° |
| 2026-05-05 03:08 | 32.94343 | -112.60542 | 27929 ft | 390 kts | 274° |
| 2026-05-05 03:08 | 32.94734 | -112.62635 | 27929 ft | 390 kts | 274° |
| 2026-05-05 03:09 | 32.95246 | -112.65790 | 27929 ft | 385 kts | 269° |
| 2026-05-05 03:09 | 32.95337 | -112.68936 | 27921 ft | 376 kts | 260° |
| 2026-05-05 03:09 | 32.95016 | -112.71985 | 27921 ft | 372 kts | 255° |
| 2026-05-05 03:09 | 32.94603 | -112.75033 | 27918 ft | 372 kts | 255° |
| 2026-05-05 03:10 | 32.94193 | -112.78073 | 27921 ft | 372 kts | 255° |
| 2026-05-05 03:10 | 32.93782 | -112.81116 | 27922 ft | 372 kts | 255° |
| 2026-05-05 03:10 | 32.93372 | -112.84156 | 27926 ft | 372 kts | 255° |
| 2026-05-05 03:10 | 32.92965 | -112.87189 | 27921 ft | 371 kts | 255° |
| 2026-05-05 03:11 | 32.92556 | -112.90225 | 27920 ft | 371 kts | 255° |
| 2026-05-05 03:11 | 32.92144 | -112.93264 | 27914 ft | 371 kts | 255° |
| 2026-05-05 03:11 | 32.91733 | -112.96289 | 27918 ft | 371 kts | 255° |
| 2026-05-05 03:11 | 32.91321 | -112.99315 | 27912 ft | 370 kts | 255° |
| 2026-05-05 03:12 | 32.90908 | -113.02337 | 27907 ft | 370 kts | 255° |
| 2026-05-05 03:12 | 32.90496 | -113.05364 | 27905 ft | 370 kts | 255° |
| 2026-05-05 03:12 | 32.90085 | -113.08382 | 27897 ft | 370 kts | 255° |
| 2026-05-05 03:12 | 32.89672 | -113.11406 | 27913 ft | 370 kts | 255° |
| 2026-05-05 03:13 | 32.89258 | -113.14428 | 27911 ft | 369 kts | 254° |
| 2026-05-05 03:13 | 32.88845 | -113.17438 | 27913 ft | 369 kts | 254° |
| 2026-05-05 03:13 | 32.88432 | -113.20448 | 27912 ft | 368 kts | 254° |
| 2026-05-05 03:13 | 32.88022 | -113.23405 | 27908 ft | 367 kts | 254° |
| 2026-05-05 03:14 | 32.87604 | -113.26403 | 27896 ft | 367 kts | 254° |
| 2026-05-05 03:14 | 32.87186 | -113.29395 | 27888 ft | 367 kts | 254° |
| 2026-05-05 03:14 | 32.86770 | -113.32389 | 27891 ft | 366 kts | 254° |
| 2026-05-05 03:14 | 32.86356 | -113.35376 | 27888 ft | 366 kts | 254° |
| 2026-05-05 03:15 | 32.85943 | -113.38368 | 27866 ft | 366 kts | 254° |
| 2026-05-05 03:15 | 32.85527 | -113.41352 | 27868 ft | 366 kts | 254° |
| 2026-05-05 03:15 | 32.85108 | -113.44340 | 27876 ft | 366 kts | 254° |
| 2026-05-05 03:15 | 32.84690 | -113.47322 | 27880 ft | 365 kts | 254° |
| 2026-05-05 03:16 | 32.84272 | -113.50301 | 27867 ft | 365 kts | 254° |
| 2026-05-05 03:16 | 32.83855 | -113.53275 | 27866 ft | 364 kts | 254° |
| 2026-05-05 03:16 | 32.83438 | -113.56244 | 27868 ft | 364 kts | 254° |
| 2026-05-05 03:16 | 32.83025 | -113.59172 | 27898 ft | 364 kts | 254° |
| 2026-05-05 03:17 | 32.82605 | -113.62134 | 27897 ft | 363 kts | 254° |
| 2026-05-05 03:17 | 32.82185 | -113.65095 | 27886 ft | 363 kts | 254° |
| 2026-05-05 03:17 | 32.81766 | -113.68057 | 27886 ft | 363 kts | 254° |
| 2026-05-05 03:17 | 32.81340 | -113.71058 | 27886 ft | 363 kts | 254° |
| 2026-05-05 03:18 | 32.80923 | -113.73970 | 27884 ft | 363 kts | 253° |
| 2026-05-05 03:18 | 32.80500 | -113.76924 | 27910 ft | 363 kts | 253° |
| 2026-05-05 03:18 | 32.80076 | -113.79886 | 27909 ft | 362 kts | 253° |
| 2026-05-05 03:18 | 32.79656 | -113.82835 | 27907 ft | 362 kts | 253° |
| 2026-05-05 03:19 | 32.78813 | -113.88716 | 27893 ft | 361 kts | 253° |
| 2026-05-05 03:19 | 32.78387 | -113.91662 | 27888 ft | 360 kts | 253° |
| 2026-05-05 03:19 | 32.77961 | -113.94593 | 27884 ft | 360 kts | 253° |
| 2026-05-05 03:20 | 32.77596 | -113.97542 | 27883 ft | 365 kts | 258° |
| 2026-05-05 03:20 | 32.77544 | -114.00578 | 27870 ft | 368 kts | 261° |
| 2026-05-05 03:20 | 32.77519 | -114.03617 | 27867 ft | 368 kts | 261° |
| 2026-05-05 03:20 | 32.77490 | -114.06654 | 27865 ft | 368 kts | 261° |
| 2026-05-05 03:21 | 32.77515 | -114.09641 | 27884 ft | 369 kts | 262° |
| 2026-05-05 03:21 | 32.77615 | -114.12698 | 27883 ft | 371 kts | 263° |
| 2026-05-05 03:21 | 32.77761 | -114.15797 | 27872 ft | 371 kts | 264° |
| 2026-05-05 03:21 | 32.77917 | -114.18813 | 27868 ft | 371 kts | 264° |
| 2026-05-05 03:22 | 32.78069 | -114.21873 | 27865 ft | 370 kts | 264° |
| 2026-05-05 03:22 | 32.78210 | -114.24931 | 27862 ft | 370 kts | 263° |
| 2026-05-05 03:22 | 32.78338 | -114.27980 | 27850 ft | 369 kts | 263° |
| 2026-05-05 03:22 | 32.78459 | -114.31029 | 27922 ft | 369 kts | 263° |
| 2026-05-05 03:23 | 32.78576 | -114.34078 | 27914 ft | 369 kts | 263° |
| 2026-05-05 03:23 | 32.78707 | -114.37124 | 27907 ft | 371 kts | 265° |
| 2026-05-05 03:23 | 32.79176 | -114.40191 | 27937 ft | 384 kts | 275° |
| 2026-05-05 03:23 | 32.80003 | -114.43233 | 27931 ft | 387 kts | 277° |
| 2026-05-05 03:24 | 32.80848 | -114.46272 | 27922 ft | 387 kts | 277° |
| 2026-05-05 03:24 | 32.81691 | -114.49309 | 27916 ft | 387 kts | 277° |
| 2026-05-05 03:24 | 32.82530 | -114.52344 | 27910 ft | 387 kts | 277° |
| 2026-05-05 03:24 | 32.83367 | -114.55381 | 27909 ft | 387 kts | 276° |
| 2026-05-05 03:25 | 32.84201 | -114.58421 | 27905 ft | 386 kts | 276° |
| 2026-05-05 03:25 | 32.85033 | -114.61462 | 27903 ft | 386 kts | 276° |
| 2026-05-05 03:25 | 32.85863 | -114.64500 | 27912 ft | 386 kts | 276° |
| 2026-05-05 03:25 | 32.86692 | -114.67539 | 27911 ft | 386 kts | 276° |
| 2026-05-05 03:26 | 32.87466 | -114.70581 | 27904 ft | 380 kts | 272° |
| 2026-05-05 03:26 | 32.87851 | -114.73636 | 27900 ft | 368 kts | 264° |
| 2026-05-05 03:26 | 32.87845 | -114.76647 | 27896 ft | 363 kts | 259° |
| 2026-05-05 03:26 | 32.87773 | -114.79605 | 27907 ft | 363 kts | 260° |
| 2026-05-05 03:27 | 32.87705 | -114.82607 | 27900 ft | 363 kts | 260° |
| 2026-05-05 03:27 | 32.87640 | -114.85610 | 27903 ft | 363 kts | 260° |
| 2026-05-05 03:27 | 32.87577 | -114.88614 | 27901 ft | 363 kts | 260° |
| 2026-05-05 03:27 | 32.87512 | -114.91614 | 27898 ft | 363 kts | 260° |
| 2026-05-05 03:28 | 32.87447 | -114.94619 | 27897 ft | 363 kts | 260° |
| 2026-05-05 03:28 | 32.87382 | -114.97625 | 27898 ft | 363 kts | 260° |
| 2026-05-05 03:28 | 32.87314 | -115.00630 | 27913 ft | 363 kts | 260° |
| 2026-05-05 03:28 | 32.87244 | -115.03629 | 27928 ft | 363 kts | 259° |
| 2026-05-05 03:29 | 32.87174 | -115.06632 | 27938 ft | 363 kts | 259° |
| 2026-05-05 03:29 | 32.87103 | -115.09632 | 27927 ft | 363 kts | 259° |
| 2026-05-05 03:29 | 32.87029 | -115.12635 | 27921 ft | 363 kts | 259° |
| 2026-05-05 03:29 | 32.86951 | -115.15635 | 27917 ft | 363 kts | 259° |
| 2026-05-05 03:30 | 32.86872 | -115.18637 | 27911 ft | 363 kts | 259° |
| 2026-05-05 03:30 | 32.86796 | -115.21638 | 27909 ft | 363 kts | 259° |
| 2026-05-05 03:30 | 32.86723 | -115.24646 | 27908 ft | 363 kts | 259° |
| 2026-05-05 03:30 | 32.86650 | -115.27651 | 27903 ft | 363 kts | 259° |
| 2026-05-05 03:31 | 32.86572 | -115.30652 | 27904 ft | 363 kts | 259° |
| 2026-05-05 03:31 | 32.86484 | -115.33654 | 27950 ft | 361 kts | 257° |
| 2026-05-05 03:31 | 32.86144 | -115.36578 | 27931 ft | 357 kts | 253° |
| 2026-05-05 03:31 | 32.85730 | -115.39508 | 27319 ft | 358 kts | 253° |
| 2026-05-05 03:32 | 32.85326 | -115.42400 | 26869 ft | 351 kts | 253° |
| 2026-05-05 03:32 | 32.84935 | -115.45229 | 26448 ft | 343 kts | 253° |
| 2026-05-05 03:32 | 32.84551 | -115.47999 | 26037 ft | 336 kts | 253° |
| 2026-05-05 03:32 | 32.84165 | -115.50677 | 25630 ft | 330 kts | 253° |
| 2026-05-05 03:33 | 32.83731 | -115.53388 | 25215 ft | 337 kts | 252° |
| 2026-05-05 03:33 | 32.83269 | -115.56129 | 24792 ft | 338 kts | 252° |
| 2026-05-05 03:33 | 32.82804 | -115.58870 | 24363 ft | 338 kts | 253° |
| 2026-05-05 03:33 | 32.82345 | -115.61609 | 23947 ft | 338 kts | 253° |
| 2026-05-05 03:34 | 32.81893 | -115.64345 | 23588 ft | 337 kts | 253° |
| 2026-05-05 03:34 | 32.81446 | -115.67079 | 23076 ft | 337 kts | 254° |
| 2026-05-05 03:34 | 32.80996 | -115.69816 | 22651 ft | 337 kts | 254° |
| 2026-05-05 03:34 | 32.80545 | -115.72552 | 22231 ft | 337 kts | 254° |
| 2026-05-05 03:35 | 32.80093 | -115.75288 | 21806 ft | 337 kts | 255° |
| 2026-05-05 03:35 | 32.79639 | -115.78024 | 21384 ft | 337 kts | 255° |
| 2026-05-05 03:35 | 32.79185 | -115.80757 | 20966 ft | 336 kts | 255° |
| 2026-05-05 03:35 | 32.78734 | -115.83483 | 20549 ft | 336 kts | 255° |
| 2026-05-05 03:36 | 32.78409 | -115.86201 | 20137 ft | 339 kts | 261° |
| 2026-05-05 03:36 | 32.78210 | -115.88990 | 19719 ft | 339 kts | 261° |
| 2026-05-05 03:36 | 32.78008 | -115.91784 | 19297 ft | 338 kts | 261° |
| 2026-05-05 03:36 | 32.77802 | -115.94565 | 18879 ft | 338 kts | 261° |
| 2026-05-05 03:37 | 32.77593 | -115.97354 | 18492 ft | 340 kts | 261° |
| 2026-05-05 03:37 | 32.77381 | -116.00163 | 17940 ft | 341 kts | 261° |
| 2026-05-05 03:37 | 32.77168 | -116.02968 | 17516 ft | 340 kts | 261° |
| 2026-05-05 03:37 | 32.76954 | -116.05765 | 17092 ft | 339 kts | 261° |
| 2026-05-05 03:38 | 32.76742 | -116.08546 | 16674 ft | 338 kts | 261° |
| 2026-05-05 03:38 | 32.76532 | -116.11303 | 16258 ft | 336 kts | 261° |
| 2026-05-05 03:38 | 32.76323 | -116.14056 | 15854 ft | 334 kts | 261° |
| 2026-05-05 03:38 | 32.76113 | -116.16793 | 15435 ft | 332 kts | 261° |
| 2026-05-05 03:39 | 32.75904 | -116.19520 | 15022 ft | 331 kts | 261° |
| 2026-05-05 03:39 | 32.75695 | -116.22230 | 14611 ft | 329 kts | 262° |
| 2026-05-05 03:39 | 32.75488 | -116.24925 | 14208 ft | 325 kts | 261° |
| 2026-05-05 03:39 | 32.75289 | -116.27550 | 13992 ft | 313 kts | 261° |
| 2026-05-05 03:40 | 32.75098 | -116.30068 | 13685 ft | 306 kts | 261° |
| 2026-05-05 03:40 | 32.74907 | -116.32576 | 13339 ft | 304 kts | 261° |
| 2026-05-05 03:40 | 32.74716 | -116.35061 | 12890 ft | 300 kts | 261° |
| 2026-05-05 03:40 | 32.74524 | -116.37522 | 12435 ft | 298 kts | 261° |
| 2026-05-05 03:41 | 32.74331 | -116.39955 | 11996 ft | 295 kts | 261° |
| 2026-05-05 03:41 | 32.74136 | -116.42375 | 11542 ft | 293 kts | 261° |
| 2026-05-05 03:41 | 32.73944 | -116.44769 | 11184 ft | 288 kts | 262° |
| 2026-05-05 03:41 | 32.73763 | -116.47077 | 11058 ft | 275 kts | 262° |
| 2026-05-05 03:42 | 32.73592 | -116.49305 | 10807 ft | 268 kts | 262° |
| 2026-05-05 03:42 | 32.73414 | -116.51482 | 10580 ft | 263 kts | 261° |
| 2026-05-05 03:42 | 32.73212 | -116.53620 | 10365 ft | 262 kts | 261° |
| 2026-05-05 03:42 | 32.73000 | -116.55760 | 10087 ft | 260 kts | 260° |
| 2026-05-05 03:43 | 32.72787 | -116.57893 | 9741 ft | 260 kts | 261° |
| 2026-05-05 03:43 | 32.72575 | -116.60036 | 9405 ft | 262 kts | 262° |
| 2026-05-05 03:43 | 32.72365 | -116.62177 | 9078 ft | 261 kts | 262° |
| 2026-05-05 03:43 | 32.72158 | -116.64313 | 8735 ft | 260 kts | 262° |
| 2026-05-05 03:44 | 32.71953 | -116.66443 | 8401 ft | 260 kts | 263° |
| 2026-05-05 03:44 | 32.71771 | -116.68576 | 8072 ft | 259 kts | 264° |
| 2026-05-05 03:44 | 32.71608 | -116.70686 | 7740 ft | 255 kts | 264° |
| 2026-05-05 03:44 | 32.71451 | -116.72771 | 7412 ft | 251 kts | 265° |
| 2026-05-05 03:45 | 32.71296 | -116.74826 | 7089 ft | 248 kts | 265° |
| 2026-05-05 03:45 | 32.71137 | -116.76860 | 6777 ft | 246 kts | 265° |
| 2026-05-05 03:45 | 32.70979 | -116.78877 | 6462 ft | 244 kts | 265° |
| 2026-05-05 03:45 | 32.70823 | -116.80849 | 6136 ft | 242 kts | 265° |
| 2026-05-05 03:46 | 32.70439 | -116.82805 | 5821 ft | 240 kts | 251° |
| 2026-05-05 03:46 | 32.69861 | -116.84617 | 5548 ft | 236 kts | 251° |
| 2026-05-05 03:46 | 32.69293 | -116.86428 | 5270 ft | 233 kts | 251° |
| 2026-05-05 03:46 | 32.68883 | -116.88256 | 4990 ft | 227 kts | 266° |
| 2026-05-05 03:47 | 32.68943 | -116.90126 | 4716 ft | 225 kts | 274° |
| 2026-05-05 03:47 | 32.69058 | -116.91973 | 4437 ft | 225 kts | 273° |
| 2026-05-05 03:47 | 32.69165 | -116.93826 | 4190 ft | 222 kts | 273° |
| 2026-05-05 03:47 | 32.69267 | -116.95627 | 3927 ft | 216 kts | 273° |
| 2026-05-05 03:48 | 32.69363 | -116.97382 | 3663 ft | 210 kts | 272° |
| 2026-05-05 03:48 | 32.69455 | -116.99076 | 3427 ft | 199 kts | 272° |
| 2026-05-05 03:48 | 32.69541 | -117.00655 | 3181 ft | 189 kts | 272° |
| 2026-05-05 03:48 | 32.69624 | -117.02173 | 2952 ft | 179 kts | 272° |
| 2026-05-05 03:49 | 32.69702 | -117.03590 | 2754 ft | 164 kts | 272° |
| 2026-05-05 03:49 | 32.69938 | -117.04863 | 2551 ft | 155 kts | 284° |
| 2026-05-05 03:49 | 32.70237 | -117.06070 | 2359 ft | 150 kts | 283° |
| 2026-05-05 03:49 | 32.70519 | -117.07229 | 2167 ft | 144 kts | 283° |
| 2026-05-05 03:50 | 32.70794 | -117.08359 | 1978 ft | 141 kts | 283° |
| 2026-05-05 03:50 | 32.71064 | -117.09475 | 1761 ft | 140 kts | 283° |
| 2026-05-05 03:50 | 32.71332 | -117.10586 | 1536 ft | 140 kts | 283° |
| 2026-05-05 03:50 | 32.71599 | -117.11697 | 1309 ft | 140 kts | 283° |
| 2026-05-05 03:51 | 32.71868 | -117.12814 | 1083 ft | 141 kts | 282° |
| 2026-05-05 03:51 | 32.72143 | -117.13938 | 878 ft | 143 kts | 283° |
| 2026-05-05 03:51 | 32.72416 | -117.15081 | 675 ft | 144 kts | 283° |
| 2026-05-05 03:51 | 32.72694 | -117.16208 | 415 ft | 141 kts | 284° |
| 2026-05-05 03:52 | 32.72961 | -117.17326 | 212 ft | 140 kts | 284° |
| 2026-05-05 03:52 | 32.73226 | -117.18429 | 50 ft | 135 kts | 284° |
| 2026-05-05 03:52 | 32.73456 | -117.19397 | 28 ft | 104 kts | 285° |
| 2026-05-05 03:52 | 32.73612 | -117.20027 | 28 ft | 55 kts | 285° |
| 2026-05-05 03:53 | 32.73681 | -117.20308 | 22 ft | 13 kts | 286° |
| 2026-05-05 03:53 | 32.73659 | -117.20404 | 22 ft | 14 kts | 215° |
| 2026-05-05 03:53 | 32.73607 | -117.20400 | 21 ft | 7 kts | 133° |
| 2026-05-05 03:53 | 32.73590 | -117.20356 | 23 ft | 5 kts | 106° |
| 2026-05-05 03:54 | 32.73582 | -117.20323 | 22 ft | 3 kts | 106° |
| 2026-05-05 03:54 | 32.73577 | -117.20303 | 23 ft | 2 kts | 106° |
| 2026-05-05 03:54 | 32.73572 | -117.20284 | 26 ft | 4 kts | 106° |
| 2026-05-05 03:54 | 32.73563 | -117.20247 | 24 ft | 5 kts | 106° |
| 2026-05-05 03:55 | 32.73561 | -117.20240 | 24 ft | 0 kts | 108° |
| 2026-05-05 03:55 | 32.73558 | -117.20239 | 24 ft | 1 kts | 147° |
| 2026-05-05 03:55 | 32.73532 | -117.20235 | 24 ft | 7 kts | 178° |
| 2026-05-05 03:55 | 32.73468 | -117.20251 | 23 ft | 11 kts | 195° |
| 2026-05-05 03:56 | 32.73425 | -117.20265 | 24 ft | 0 kts | 193° |
| 2026-05-05 03:56 | 32.73422 | -117.20263 | 24 ft | 0 kts | 169° |
| 2026-05-05 03:56 | 32.73421 | -117.20258 | 22 ft | 1 kts | 127° |
| 2026-05-05 03:56 | 32.73406 | -117.20237 | 28 ft | 5 kts | 133° |
| 2026-05-05 03:57 | 32.73387 | -117.20218 | 22 ft | 2 kts | 140° |
| 2026-05-05 03:57 | 32.73374 | -117.20206 | 23 ft | 2 kts | 141° |
| 2026-05-05 03:57 | 32.73372 | -117.20204 | 23 ft | 0 kts | 141° |